Terminal Aerodrome Forecast
Issued by NWS Mt. Holly, NJ

Home | Current Version | Previous Version | Text Only | Print | Product List | Glossary On
Versions: 1 2 3 4 5 6 7 8 9 10 11 12 13 14 15 16 17 18
000
FTUS41 KPHI 062321
TAFRDG
TAF
KRDG 062321Z 0700/0724 05007KT P6SM BKN070
     FM070300 VRB03KT P6SM BKN040
     FM071300 12005KT P6SM BKN050
     FM071700 20005KT P6SM SCT050=

USA.gov is the U.S. government's official web portal to all federal, state and local government web resources and services.